Almyros — 9HA2510 — position and weather

sailwx.info

Track history (hours):
 
Tides and Currents Weather Stations Pressure Air Temp Water Temp Dewpoint Dewpoint Depression Visibility Wind Speed Wind Dir Waves Ship Positions

Almyros

Last reported at 2017-Oct-15 01:30 UTC. Time now 2017-Nov-20 12:04 UTC.
Position N 01°17' E 103°59'.
Warning: this ship's position is 36 days out of date.

Length 189 m; draft 12.8 m.

Type: Cargo ship. MMSI: 248779000.

Date/timePositionNaut miles runAvg speedWind from/ knotsBaromVisibWave heightAir tempDewpointWater temp
2017-Oct-15 01:30N 01°17' E 103°59'0 0.5
2017-Oct-15 01:00N 01°17' E 103°59'0 0.0
2017-Oct-15 00:30N 01°17' E 103°59'0 0.1
2017-Oct-14 23:59N 01°17' E 103°59'0 0.0
2017-Oct-14 23:22N 01°17' E 103°59'0 0.0
2017-Oct-14 22:06N 01°17' E 103°59'0 0.0
2017-Oct-14 21:55N 01°17' E 103°59'0 0.0
2017-Oct-14 14:38N 01°17' E 103°59'3 7.6
2017-Oct-14 14:16N 01°15' E 104°00'3 8.0
2017-Oct-14 13:56N 01°17' E 103°59'10 5.0
2017-Oct-14 11:55N 01°11' E 103°51'1 1.4
2017-Oct-14 11:30N 01°11' E 103°51'1 1.5
2017-Oct-14 10:59N 01°10' E 103°50'1 1.6
2017-Oct-14 10:28N 01°10' E 103°49'1 1.5
2017-Oct-14 09:59N 01°10' E 103°48'10 1.2
2017-Oct-14 01:24N 01°16' E 103°57'6 4.4
2017-Oct-14 00:01N 01°12' E 103°52'0 8.0
2017-Oct-14 00:00N 01°11' E 103°52'4 7.1
2017-Oct-13 23:30N 01°10' E 103°49'4 7.6
2017-Oct-13 23:00N 01°08' E 103°46'4 8.2
2017-Oct-13 22:30N 01°05' E 103°43'4 8.5
2017-Oct-13 22:01N 01°03' E 103°40'510.4
2017-Oct-13 21:29N 01°05' E 103°35'4 7.7
2017-Oct-13 21:00N 01°06' E 103°31'611.7
2017-Oct-13 20:30N 01°09' E 103°26'  
Track history (hours):
 
Tides and Currents Weather Stations Pressure Air Temp Water Temp Dewpoint Dewpoint Depression Visibility Wind Speed Wind Dir Waves Ship Positions

Almyros

Last reported at 2017-Oct-15 01:30 UTC. Time now 2017-Nov-20 12:04 UTC.
Position N 01°17' E 103°59'.
Warning: this ship's position is 36 days out of date.

Length 189 m; draft 12.8 m.

Type: Cargo ship. MMSI: 248779000.

Date/timePositionNaut miles runAvg speedWind from/ knotsBaromVisibWave heightAir tempDewpointWater temp
2017-Oct-15 01:30N 01°17' E 103°59'0 0.5
2017-Oct-15 01:00N 01°17' E 103°59'0 0.0
2017-Oct-15 00:30N 01°17' E 103°59'0 0.1
2017-Oct-14 23:59N 01°17' E 103°59'0 0.0
2017-Oct-14 23:22N 01°17' E 103°59'0 0.0
2017-Oct-14 22:06N 01°17' E 103°59'0 0.0
2017-Oct-14 21:55N 01°17' E 103°59'0 0.0
2017-Oct-14 14:38N 01°17' E 103°59'3 7.6
2017-Oct-14 14:16N 01°15' E 104°00'3 8.0
2017-Oct-14 13:56N 01°17' E 103°59'10 5.0
2017-Oct-14 11:55N 01°11' E 103°51'1 1.4
2017-Oct-14 11:30N 01°11' E 103°51'1 1.5
2017-Oct-14 10:59N 01°10' E 103°50'1 1.6
2017-Oct-14 10:28N 01°10' E 103°49'1 1.5
2017-Oct-14 09:59N 01°10' E 103°48'10 1.2
2017-Oct-14 01:24N 01°16' E 103°57'6 4.4
2017-Oct-14 00:01N 01°12' E 103°52'0 8.0
2017-Oct-14 00:00N 01°11' E 103°52'4 7.1
2017-Oct-13 23:30N 01°10' E 103°49'4 7.6
2017-Oct-13 23:00N 01°08' E 103°46'4 8.2
2017-Oct-13 22:30N 01°05' E 103°43'4 8.5
2017-Oct-13 22:01N 01°03' E 103°40'510.4
2017-Oct-13 21:29N 01°05' E 103°35'4 7.7
2017-Oct-13 21:00N 01°06' E 103°31'611.7
2017-Oct-13 20:30N 01°09' E 103°26'  

Dump ship's entire track history